« Back
NWS Peachtree City, Ga » Text Product » ATL Terminal Aerodrome Forecast


Printer-friendly Version
Current Version              Previous Versions:   1  2  3  4  5  6  7  8  9  

Terminal Aerodrome Forecast

271
FTUS42 KFFC 282344
TAFATL
TAF
KATL 282344Z 2900/3006 11007KT P6SM SCT050 SCT250
     FM290600 11006KT P6SM SCT015
     FM290900 10007KT 5SM BR BKN009
     FM291400 12010KT P6SM VCSH BKN015 OVC035 PROB30 2915/2918 6SM
      -SHRA BKN010
     FM291800 12012KT 6SM -SHRA BKN030 OVC080
     FM300100 13007KT P6SM VCSH BKN030 OVC080=

USA.gov is the U.S. government's official web portal to all federal, state and local government web resources and services.